createdAt,value
2023-05-05T00:00:09.015Z,3.10
2023-05-05T00:02:37.470Z,3.50
2023-05-05T00:05:09.924Z,3.37
2023-05-05T00:07:43.116Z,3.80
2023-05-05T00:10:12.069Z,3.80
2023-05-05T00:12:42.684Z,3.27
2023-05-05T00:15:13.229Z,3.07
2023-05-05T00:17:41.712Z,3.73
2023-05-05T00:20:14.921Z,3.60
2023-05-05T00:22:45.575Z,3.43
2023-05-05T00:25:13.775Z,2.93
2023-05-05T00:27:41.914Z,3.30
2023-05-05T00:30:10.638Z,3.50
2023-05-05T00:32:41.623Z,3.10
2023-05-05T00:35:12.101Z,3.20
2023-05-05T00:37:41.649Z,3.60
2023-05-05T00:40:11.212Z,3.50
2023-05-05T00:42:41.513Z,3.47
2023-05-05T00:45:13.879Z,3.63
2023-05-05T00:47:44.404Z,2.93
2023-05-05T00:50:22.468Z,3.53
2023-05-05T00:52:53.683Z,3.10
2023-05-05T00:55:22.451Z,3.70
2023-05-05T00:57:50.754Z,3.67
2023-05-05T01:00:19.086Z,3.13
2023-05-05T01:02:47.295Z,3.30
2023-05-05T01:05:17.276Z,3.60
2023-05-05T01:08:03.758Z,4.63
2023-05-05T01:10:39.387Z,4.03
2023-05-05T01:13:17.995Z,3.47
2023-05-05T01:15:51.502Z,3.43
2023-05-05T01:18:31.442Z,3.67
2023-05-05T01:21:04.570Z,4.20
2023-05-05T01:23:48.842Z,3.43
2023-05-05T01:26:49.056Z,3.30
2023-05-05T01:29:39.928Z,3.23
2023-05-05T01:32:14.293Z,4.10
2023-05-05T01:34:50.643Z,3.87
2023-05-05T01:37:23.317Z,3.53
2023-05-05T01:39:56.748Z,4.00
2023-05-05T01:42:30.285Z,3.80
2023-05-05T01:45:01.542Z,3.60
2023-05-05T01:47:33.684Z,3.97
2023-05-05T01:50:04.295Z,3.17
2023-05-05T01:52:33.692Z,3.60
2023-05-05T01:55:03.481Z,3.40
2023-05-05T01:57:33.984Z,3.73
2023-05-05T02:00:05.851Z,3.97
2023-05-05T02:02:46.464Z,3.80
2023-05-05T02:05:19.277Z,3.90
2023-05-05T02:07:51.416Z,3.73
2023-05-05T02:10:20.183Z,3.80
2023-05-05T02:12:52.435Z,3.80
2023-05-05T02:15:23.006Z,3.80
2023-05-05T02:17:55.438Z,3.83
2023-05-05T02:20:25.326Z,3.80
2023-05-05T02:22:53.852Z,3.17
2023-05-05T02:25:24.690Z,3.50
2023-05-05T02:27:58.064Z,3.53
2023-05-05T02:30:28.040Z,3.77
2023-05-05T02:33:02.634Z,3.77
2023-05-05T02:35:37.599Z,3.30
2023-05-05T02:38:10.856Z,3.40
2023-05-05T02:40:44.575Z,4.00
2023-05-05T02:43:19.064Z,3.80
2023-05-05T02:45:49.738Z,3.83
2023-05-05T02:48:21.073Z,4.17
2023-05-05T02:50:53.160Z,4.30
2023-05-05T02:53:29.053Z,3.77
2023-05-05T02:56:08.208Z,4.17
2023-05-05T02:58:49.458Z,3.57
2023-05-05T03:01:29.226Z,3.60
2023-05-05T03:04:07.745Z,4.23
2023-05-05T03:06:42.725Z,3.90
2023-05-05T03:09:22.341Z,3.50
2023-05-05T03:11:56.068Z,3.83
2023-05-05T03:14:26.541Z,3.40
2023-05-05T03:16:56.418Z,3.33
2023-05-05T03:19:26.982Z,3.37
2023-05-05T03:22:00.681Z,3.87
2023-05-05T03:24:29.339Z,3.60
2023-05-05T03:27:08.078Z,3.70
2023-05-05T03:29:39.482Z,4.17
2023-05-05T03:32:12.480Z,3.63
2023-05-05T03:34:46.184Z,3.83
2023-05-05T03:37:14.320Z,3.53
2023-05-05T03:39:43.683Z,4.23
2023-05-05T03:42:13.190Z,3.60
2023-05-05T03:44:41.371Z,3.87
2023-05-05T03:47:09.594Z,4.10
2023-05-05T03:49:39.734Z,3.90
2023-05-05T03:52:10.183Z,4.13
2023-05-05T03:54:42.494Z,3.40
2023-05-05T03:57:10.683Z,3.60
2023-05-05T03:59:38.795Z,3.97
2023-05-05T04:02:07.239Z,4.07
2023-05-05T04:04:35.564Z,4.10
2023-05-05T04:07:06.140Z,3.53
2023-05-05T04:09:36.098Z,4.37
2023-05-05T04:12:04.972Z,4.53
2023-05-05T04:14:35.948Z,3.70
2023-05-05T04:17:04.298Z,4.23
2023-05-05T04:19:35.321Z,4.57
2023-05-05T04:22:04.571Z,3.77
2023-05-05T04:24:36.482Z,4.67
2023-05-05T04:27:04.874Z,4.47
2023-05-05T04:29:33.230Z,4.33
2023-05-05T04:32:01.987Z,4.27
2023-05-05T04:34:30.965Z,4.50
2023-05-05T04:37:01.597Z,4.57
2023-05-05T04:39:32.612Z,4.67
2023-05-05T04:42:03.348Z,4.57
2023-05-05T04:44:31.876Z,4.00
2023-05-05T04:47:01.723Z,3.63
2023-05-05T04:49:30.918Z,4.07
2023-05-05T04:51:59.557Z,4.50
2023-05-05T04:54:27.788Z,3.90
2023-05-05T04:56:55.931Z,4.80
2023-05-05T04:59:25.524Z,4.77
2023-05-05T05:01:53.797Z,4.40
2023-05-05T05:04:22.212Z,5.40
2023-05-05T05:06:50.603Z,4.43
2023-05-05T05:09:18.976Z,4.50
2023-05-05T05:11:47.168Z,5.27
2023-05-05T05:14:17.801Z,4.37
2023-05-05T05:16:52.343Z,4.43
2023-05-05T05:19:22.752Z,4.53
2023-05-05T05:21:53.279Z,4.63
2023-05-05T05:24:21.452Z,4.40
2023-05-05T05:26:52.673Z,4.82
2023-05-05T05:29:21.240Z,4.87
2023-05-05T05:31:51.485Z,4.87
2023-05-05T05:34:22.174Z,5.00
2023-05-05T05:36:50.699Z,4.40
2023-05-05T05:39:19.098Z,5.43
2023-05-05T05:41:51.397Z,5.93
2023-05-05T05:44:22.734Z,5.23
2023-05-05T05:46:52.372Z,7.07
2023-05-05T05:49:20.676Z,6.50
2023-05-05T05:51:49.124Z,6.40
2023-05-05T05:54:17.345Z,5.60
2023-05-05T05:56:47.775Z,5.87
2023-05-05T05:59:16.552Z,6.70
2023-05-05T06:01:44.925Z,5.90
2023-05-05T06:04:14.785Z,6.43
2023-05-05T06:06:43.038Z,5.50
2023-05-05T06:09:13.366Z,7.40
2023-05-05T06:11:42.161Z,6.57
2023-05-05T06:14:10.626Z,6.37
2023-05-05T06:16:38.870Z,6.77
2023-05-05T06:19:12.468Z,6.90
2023-05-05T06:21:42.562Z,5.93
2023-05-05T06:24:13.389Z,6.30
2023-05-05T06:26:42.886Z,7.37
2023-05-05T06:29:13.066Z,7.60
2023-05-05T06:31:43.688Z,9.13
2023-05-05T06:34:12.222Z,8.77
2023-05-05T06:36:43.990Z,8.77
2023-05-05T06:39:16.023Z,9.17
2023-05-05T06:41:44.502Z,10.27
2023-05-05T06:44:12.849Z,10.63
2023-05-05T06:46:43.998Z,11.53
2023-05-05T06:49:12.315Z,11.40
2023-05-05T06:51:42.209Z,11.47
2023-05-05T06:54:17.624Z,11.67
2023-05-05T06:56:46.266Z,11.00
2023-05-05T06:59:14.580Z,11.77
2023-05-05T07:01:42.838Z,11.20
2023-05-05T07:04:11.236Z,10.97
2023-05-05T07:06:41.692Z,11.20
2023-05-05T07:09:12.676Z,11.33
2023-05-05T07:11:42.213Z,10.00
2023-05-05T07:14:10.468Z,10.17
2023-05-05T07:16:41.165Z,10.77
2023-05-05T07:19:09.517Z,10.73
2023-05-05T07:21:39.703Z,10.10
2023-05-05T07:24:08.474Z,10.07
2023-05-05T07:26:36.917Z,10.77
2023-05-05T07:29:07.138Z,10.10
2023-05-05T07:31:35.382Z,11.30
2023-05-05T07:34:03.456Z,10.00
2023-05-05T07:36:32.198Z,11.33
2023-05-05T07:39:00.460Z,10.53
2023-05-05T07:41:28.642Z,9.53
2023-05-05T07:43:56.785Z,9.60
2023-05-05T07:46:28.641Z,9.03
2023-05-05T07:48:59.289Z,8.30
2023-05-05T07:51:29.770Z,7.27
2023-05-05T07:53:57.866Z,7.93
2023-05-05T07:56:28.355Z,8.33
2023-05-05T07:58:58.583Z,8.17
2023-05-05T08:01:28.132Z,7.37
2023-05-05T08:03:58.529Z,8.10
2023-05-05T08:06:27.876Z,8.23
2023-05-05T08:08:58.688Z,8.63
2023-05-05T08:11:29.815Z,7.40
2023-05-05T08:13:57.982Z,7.30
2023-05-05T08:16:26.189Z,7.53
2023-05-05T08:19:00.822Z,7.70
2023-05-05T08:21:29.023Z,8.60
2023-05-05T08:24:00.009Z,7.40
2023-05-05T08:26:29.955Z,8.27
2023-05-05T08:29:00.794Z,7.73
2023-05-05T08:31:34.970Z,7.57
2023-05-05T08:34:10.056Z,7.57
2023-05-05T08:36:41.247Z,7.47
2023-05-05T08:39:09.485Z,6.53
2023-05-05T08:41:37.688Z,7.57
2023-05-05T08:44:09.395Z,6.97
2023-05-05T08:46:37.594Z,6.80
2023-05-05T08:49:12.470Z,7.20
2023-05-05T08:51:44.349Z,7.13
2023-05-05T08:54:18.884Z,6.13
2023-05-05T08:56:50.712Z,7.33
2023-05-05T08:59:24.130Z,6.20
2023-05-05T09:01:55.279Z,6.17
2023-05-05T09:04:27.389Z,7.20
2023-05-05T09:06:58.100Z,6.37
2023-05-05T09:09:27.060Z,6.80
2023-05-05T09:11:59.797Z,6.63
2023-05-05T09:14:27.952Z,6.87
2023-05-05T09:16:56.217Z,6.07
2023-05-05T09:19:24.439Z,6.27
2023-05-05T09:21:54.595Z,6.27
2023-05-05T09:24:22.736Z,7.17
2023-05-05T09:26:50.958Z,6.67
2023-05-05T09:29:19.903Z,6.80
2023-05-05T09:32:08.874Z,6.70
2023-05-05T09:34:37.460Z,5.50
2023-05-05T09:37:06.957Z,4.90
2023-05-05T09:39:35.089Z,5.87
2023-05-05T09:42:04.029Z,5.70
2023-05-05T09:44:36.025Z,5.70
2023-05-05T09:47:09.423Z,5.73
2023-05-05T09:49:40.745Z,5.20
2023-05-05T09:52:15.915Z,4.07
2023-05-05T09:54:44.907Z,4.83
2023-05-05T09:57:28.382Z,5.23
2023-05-05T09:59:58.518Z,4.60
2023-05-05T10:02:34.645Z,3.90
2023-05-05T10:05:07.660Z,3.57
2023-05-05T10:07:39.249Z,4.77
2023-05-05T10:10:12.526Z,4.90
2023-05-05T10:12:41.298Z,4.30
2023-05-05T10:15:12.576Z,4.93
2023-05-05T10:18:02.336Z,5.20
2023-05-05T10:20:34.534Z,5.00
2023-05-05T10:23:07.392Z,4.33
2023-05-05T10:25:48.127Z,4.50
2023-05-05T10:28:23.962Z,4.75
2023-05-05T10:30:55.460Z,5.20
2023-05-05T10:36:01.043Z,5.33
2023-05-05T10:38:32.011Z,6.30
2023-05-05T10:41:09.676Z,5.90
2023-05-05T10:43:38.592Z,4.75
2023-05-05T10:46:09.733Z,5.23
2023-05-05T10:48:46.432Z,5.93
2023-05-05T10:51:39.266Z,4.97
2023-05-05T10:54:18.246Z,5.18
2023-05-05T10:56:47.916Z,4.57
2023-05-05T10:59:45.419Z,4.13
2023-05-05T11:02:21.091Z,5.07
2023-05-05T11:05:10.762Z,4.47
2023-05-05T11:07:39.172Z,4.53
2023-05-05T11:10:12.015Z,4.10
2023-05-05T11:13:20.600Z,4.85
2023-05-05T11:15:50.263Z,5.28
2023-05-05T11:18:36.502Z,4.20
2023-05-05T11:21:15.651Z,5.10
2023-05-05T11:23:51.439Z,4.35
2023-05-05T11:26:52.177Z,4.40
2023-05-05T11:29:23.364Z,3.28
2023-05-05T11:32:12.823Z,4.25
2023-05-05T11:34:50.929Z,4.07
2023-05-05T11:37:19.535Z,4.03
2023-05-05T11:39:57.204Z,4.35
2023-05-05T11:42:27.428Z,4.63
2023-05-05T11:44:56.050Z,4.70
2023-05-05T11:47:33.830Z,4.10
2023-05-05T11:50:33.568Z,4.03
2023-05-05T11:53:04.300Z,3.60
2023-05-05T11:55:32.385Z,3.47
2023-05-05T11:58:01.915Z,2.85
2023-05-05T12:00:34.450Z,3.28
2023-05-05T12:03:03.192Z,2.30
2023-05-05T12:05:36.319Z,2.40
2023-05-05T12:08:05.293Z,2.83
2023-05-05T12:10:33.512Z,2.40
2023-05-05T12:13:05.353Z,2.55
2023-05-05T12:15:37.914Z,3.17
2023-05-05T12:18:06.464Z,2.83
2023-05-05T12:20:36.619Z,2.67
2023-05-05T12:23:05.271Z,2.40
2023-05-05T12:25:38.091Z,3.30
2023-05-05T12:28:09.318Z,3.30
2023-05-05T12:30:38.678Z,3.45
2023-05-05T12:33:08.201Z,3.50
2023-05-05T12:35:38.036Z,4.10
2023-05-05T12:38:06.342Z,3.20
2023-05-05T12:40:48.513Z,3.60
2023-05-05T12:43:32.952Z,3.38
2023-05-05T12:46:09.587Z,3.90
2023-05-05T12:48:39.401Z,3.60
2023-05-05T12:51:16.019Z,3.90
2023-05-05T12:53:45.060Z,4.50
2023-05-05T12:56:32.613Z,3.28
2023-05-05T12:59:05.630Z,3.80
2023-05-05T13:01:37.352Z,3.72
2023-05-05T13:04:10.732Z,4.30
2023-05-05T13:06:39.829Z,3.50
2023-05-05T13:09:11.677Z,3.57
2023-05-05T13:11:42.071Z,4.63
2023-05-05T13:14:11.604Z,4.55
2023-05-05T13:16:42.489Z,4.53
2023-05-05T13:19:10.678Z,4.43
2023-05-05T13:21:38.786Z,3.40
2023-05-05T13:26:38.715Z,2.90
2023-05-05T13:29:09.164Z,3.22
2023-05-05T13:31:38.815Z,2.80
2023-05-05T13:34:07.001Z,2.65
2023-05-05T13:36:35.170Z,2.95
2023-05-05T13:39:03.735Z,2.77
2023-05-05T13:41:31.909Z,2.23
2023-05-05T13:44:00.123Z,2.67
2023-05-05T13:46:28.258Z,3.20
2023-05-05T13:48:57.927Z,3.83
2023-05-05T13:51:26.207Z,3.77
2023-05-05T13:53:54.381Z,3.50
2023-05-05T13:56:26.386Z,3.50
2023-05-05T13:58:57.327Z,2.80
2023-05-05T14:01:28.665Z,3.10
2023-05-05T14:03:58.650Z,1.50
2023-05-05T14:06:29.228Z,0.70
2023-05-05T14:08:57.382Z,0.90
2023-05-05T14:11:25.624Z,0.80
2023-05-05T14:13:54.151Z,0.77
2023-05-05T14:16:22.501Z,0.70
2023-05-05T14:18:50.793Z,0.70
2023-05-05T14:21:20.347Z,1.00
2023-05-05T14:23:48.559Z,0.93
2023-05-05T14:26:16.815Z,1.57
2023-05-05T14:28:46.756Z,1.30
2023-05-05T14:31:18.554Z,1.27
2023-05-05T14:33:49.255Z,0.90
2023-05-05T14:36:17.589Z,0.90
2023-05-05T14:38:47.172Z,0.90
2023-05-05T14:41:15.432Z,0.50
2023-05-05T14:43:43.581Z,0.50
2023-05-05T14:46:13.941Z,0.70
2023-05-05T14:48:42.331Z,1.00
2023-05-05T14:51:10.598Z,1.00
2023-05-05T14:53:41.882Z,0.60
2023-05-05T14:56:11.503Z,0.80
2023-05-05T14:58:39.679Z,0.80
2023-05-05T15:01:07.915Z,0.67
2023-05-05T15:03:36.393Z,0.50
2023-05-05T15:06:06.895Z,0.60
2023-05-05T15:08:38.956Z,0.80
2023-05-05T15:11:07.312Z,0.70
2023-05-05T15:13:41.363Z,0.70
2023-05-05T15:16:10.061Z,0.90
2023-05-05T15:18:38.315Z,0.70
2023-05-05T15:21:09.051Z,0.70
2023-05-05T15:23:37.313Z,0.70
2023-05-05T15:26:08.046Z,0.83
2023-05-05T15:28:40.183Z,0.80
2023-05-05T15:31:10.739Z,1.03
2023-05-05T15:33:39.839Z,0.90
2023-05-05T15:36:11.317Z,0.90
2023-05-05T15:38:43.289Z,0.70
2023-05-05T15:41:11.568Z,0.60
2023-05-05T15:43:41.186Z,0.97
2023-05-05T15:46:09.432Z,1.00
2023-05-05T15:48:40.149Z,0.90
2023-05-05T15:51:08.400Z,0.90
2023-05-05T15:53:36.796Z,0.80
2023-05-05T15:56:05.227Z,0.60
2023-05-05T15:58:33.492Z,1.00
2023-05-05T16:01:07.881Z,0.70
2023-05-05T16:03:36.262Z,0.97
2023-05-05T16:06:04.768Z,0.60
2023-05-05T16:08:32.972Z,0.80
2023-05-05T16:11:03.530Z,0.90
2023-05-05T16:13:33.984Z,1.33
2023-05-05T16:16:07.280Z,2.23
2023-05-05T16:18:38.586Z,3.47
2023-05-05T16:21:07.122Z,2.53
2023-05-05T16:23:35.419Z,1.40
2023-05-05T16:26:04.605Z,1.30
2023-05-05T16:28:34.281Z,1.90
2023-05-05T16:31:02.873Z,7.07
2023-05-05T16:33:32.582Z,3.37
2023-05-05T16:36:00.829Z,2.57
2023-05-05T16:38:29.130Z,1.50
2023-05-05T16:40:57.452Z,1.60
2023-05-05T16:43:25.759Z,1.00
2023-05-05T16:45:54.057Z,1.13
2023-05-05T16:48:24.582Z,1.40
2023-05-05T16:50:54.236Z,1.10
2023-05-05T16:53:24.772Z,0.90
2023-05-05T16:55:53.280Z,1.10
2023-05-05T16:58:23.174Z,1.03
2023-05-05T17:00:54.628Z,0.90
2023-05-05T17:03:25.594Z,1.60
2023-05-05T17:05:55.317Z,1.03
2023-05-05T17:08:23.579Z,1.30
2023-05-05T17:10:54.264Z,0.80
2023-05-05T17:13:23.173Z,0.93
2023-05-05T17:15:51.758Z,0.90
2023-05-05T17:18:25.713Z,0.80
2023-05-05T17:20:55.385Z,1.07
2023-05-05T17:23:23.527Z,0.87
2023-05-05T17:25:54.313Z,0.73
2023-05-05T17:28:22.486Z,1.17
2023-05-05T17:30:52.789Z,1.30
2023-05-05T17:33:22.101Z,1.33
2023-05-05T17:35:50.355Z,1.10
2023-05-05T17:38:19.878Z,0.90
2023-05-05T17:40:48.232Z,0.80
2023-05-05T17:43:16.378Z,1.10
2023-05-05T17:45:45.145Z,0.90
2023-05-05T17:48:13.338Z,0.97
2023-05-05T17:50:43.415Z,1.10
2023-05-05T17:53:11.907Z,1.13
2023-05-05T17:55:47.146Z,1.20
2023-05-05T17:58:19.235Z,1.20
2023-05-05T18:00:49.799Z,1.30
2023-05-05T18:03:18.066Z,0.83
2023-05-05T18:05:46.567Z,1.10
2023-05-05T18:08:18.539Z,0.93
2023-05-05T18:10:50.440Z,0.97
2023-05-05T18:13:19.902Z,0.70
2023-05-05T18:15:48.418Z,1.23
2023-05-05T18:18:16.699Z,0.80
2023-05-05T18:20:47.253Z,0.67
2023-05-05T18:23:17.672Z,0.90
2023-05-05T18:25:46.466Z,1.20
2023-05-05T18:28:16.034Z,0.93
2023-05-05T18:30:46.576Z,1.10
2023-05-05T18:33:16.948Z,1.30
2023-05-05T18:35:45.125Z,1.10
2023-05-05T18:38:13.493Z,1.00
2023-05-05T18:40:41.740Z,1.20
2023-05-05T18:43:10.060Z,1.20
2023-05-05T18:45:39.656Z,1.07
2023-05-05T18:48:08.138Z,0.93
2023-05-05T18:50:38.993Z,0.90
2023-05-05T18:53:10.837Z,0.90
2023-05-05T18:55:39.081Z,1.10
2023-05-05T18:58:09.578Z,1.20
2023-05-05T19:00:39.326Z,1.50
2023-05-05T19:03:07.555Z,1.43
2023-05-05T19:05:36.031Z,1.00
2023-05-05T19:08:04.256Z,1.30
2023-05-05T19:10:32.617Z,1.37
2023-05-05T19:13:00.816Z,1.10
2023-05-05T19:15:29.058Z,1.20
2023-05-05T19:17:58.658Z,1.43
2023-05-05T19:20:26.857Z,1.33
2023-05-05T19:22:55.743Z,1.20
2023-05-05T19:25:23.928Z,1.10
2023-05-05T19:27:54.349Z,1.20
2023-05-05T19:30:23.265Z,1.50
2023-05-05T19:32:51.480Z,1.50
2023-05-05T19:35:21.245Z,1.47
2023-05-05T19:37:49.502Z,1.97
2023-05-05T19:40:17.679Z,2.70
2023-05-05T19:42:45.791Z,2.10
2023-05-05T19:45:13.962Z,2.00
2023-05-05T19:47:42.117Z,1.90
2023-05-05T19:50:11.648Z,2.20
2023-05-05T19:52:41.871Z,2.10
2023-05-05T19:55:12.929Z,1.90
2023-05-05T19:57:41.613Z,2.13
2023-05-05T20:00:11.925Z,1.80
2023-05-05T20:02:42.956Z,1.87
2023-05-05T20:05:14.008Z,1.77
2023-05-05T20:07:43.628Z,1.93
2023-05-05T20:10:14.388Z,1.80
2023-05-05T20:12:50.217Z,1.87
2023-05-05T20:15:21.757Z,1.67
2023-05-05T20:17:50.264Z,1.83
2023-05-05T20:20:20.337Z,1.80
2023-05-05T20:22:53.283Z,1.60
2023-05-05T20:25:21.565Z,2.20
2023-05-05T20:27:49.745Z,2.53
2023-05-05T20:30:19.607Z,3.53
2023-05-05T20:32:47.798Z,2.60
2023-05-05T20:35:18.075Z,2.43
2023-05-05T20:37:46.328Z,2.23
2023-05-05T20:40:16.368Z,2.53
2023-05-05T20:42:46.871Z,2.47
2023-05-05T20:45:15.255Z,2.63
2023-05-05T20:47:43.672Z,2.30
2023-05-05T20:50:12.580Z,2.10
2023-05-05T20:52:40.910Z,1.93
2023-05-05T20:55:11.544Z,2.13
2023-05-05T20:57:43.632Z,2.10
2023-05-05T21:00:12.587Z,2.30
2023-05-05T21:02:43.253Z,2.20
2023-05-05T21:05:11.835Z,2.60
2023-05-05T21:07:42.324Z,3.37
2023-05-05T21:10:11.388Z,2.67
2023-05-05T21:12:40.886Z,2.87
2023-05-05T21:15:13.330Z,3.33
2023-05-05T21:17:44.112Z,3.13
2023-05-05T21:20:13.496Z,2.77
2023-05-05T21:22:41.862Z,2.07
2023-05-05T21:25:14.244Z,2.20
2023-05-05T21:27:42.922Z,2.27
2023-05-05T21:30:17.632Z,2.40
2023-05-05T21:32:46.103Z,3.30
2023-05-05T21:35:14.351Z,2.30
2023-05-05T21:37:42.625Z,3.10
2023-05-05T21:40:13.630Z,3.10
2023-05-05T21:42:43.000Z,2.83
2023-05-05T21:45:13.127Z,2.53
2023-05-05T21:47:42.965Z,2.40
2023-05-05T21:50:12.186Z,2.50
2023-05-05T21:52:41.311Z,2.23
2023-05-05T21:55:11.067Z,2.80
2023-05-05T21:57:39.263Z,2.90
2023-05-05T22:00:09.080Z,3.03
2023-05-05T22:02:47.514Z,2.87
2023-05-05T22:05:15.802Z,2.93
2023-05-05T22:07:43.987Z,2.67
2023-05-05T22:10:12.552Z,2.27
2023-05-05T22:12:41.160Z,3.17
2023-05-05T22:15:10.521Z,2.87
2023-05-05T22:17:39.000Z,2.70
2023-05-05T22:20:12.020Z,2.27
2023-05-05T22:22:40.678Z,3.00
2023-05-05T22:25:09.820Z,2.37
2023-05-05T22:27:38.225Z,2.73
2023-05-05T22:30:08.305Z,2.60
2023-05-05T22:32:36.593Z,2.17
2023-05-05T22:35:05.329Z,2.27
2023-05-05T22:37:40.427Z,1.90
2023-05-05T22:40:12.899Z,2.03
2023-05-05T22:42:41.188Z,2.10
2023-05-05T22:45:10.730Z,2.53
2023-05-05T22:47:39.190Z,2.47
2023-05-05T22:50:08.714Z,2.70
2023-05-05T22:52:38.242Z,2.20
2023-05-05T22:55:07.059Z,2.27
2023-05-05T22:57:36.269Z,1.63
2023-05-05T23:00:08.843Z,2.00
2023-05-05T23:02:37.508Z,1.97
2023-05-05T23:05:06.620Z,2.70
2023-05-05T23:07:34.885Z,3.13
2023-05-05T23:10:08.540Z,2.30
2023-05-05T23:12:36.827Z,2.83
2023-05-05T23:15:09.071Z,2.67
2023-05-05T23:17:37.418Z,2.60
2023-05-05T23:20:09.483Z,2.83
2023-05-05T23:22:37.618Z,3.03
2023-05-05T23:25:10.624Z,2.63
2023-05-05T23:27:41.928Z,2.50
2023-05-05T23:30:11.064Z,2.67
2023-05-05T23:32:39.299Z,2.60
2023-05-05T23:35:08.559Z,3.17
2023-05-05T23:37:36.861Z,2.77
2023-05-05T23:40:10.135Z,3.00
2023-05-05T23:42:38.320Z,2.87
2023-05-05T23:45:07.334Z,2.73
2023-05-05T23:47:35.679Z,2.90
2023-05-05T23:50:03.979Z,2.33
2023-05-05T23:52:32.137Z,2.70
2023-05-05T23:55:00.386Z,2.83
2023-05-05T23:57:29.892Z,3.43
2023-05-05T23:59:58.188Z,3.17
